Naxos, Greece

4:53 PM EEST on September 29, 2016 (GMT +0300)
IU039DU03 | | Change Station

Elev 135 ft 37.09 °N, 25.40 °E | Updated 7 seconds ago

Clear
Clear
74.0 °F
Feels Like 77 °F
N
8.6
Wind Variable Wind from WNW
Gusts 27.8 mph

Today
High -- | Low -- °F
--% Chance of Precip.
Yesterday
High -- | Low -- °F
Precip. -- in
Pressure 30.15 in
Visibility -9999.0 miles
Clouds
Heat Index 77 °F
Dew Point 56 °F
Humidity 53%
Rainfall 0.00 in
Snow Depth Not available.
7:12 AM 7:04 PM
Waning Crescent, 2% visible
METAR LGPA 291320Z 35017KT CAVOK 24/10 Q1021
Pressure 30.15 in
Visibility -9999.0 miles
Clouds
Heat Index 77 °F
Dew Point 56 °F
Humidity 53%
Rainfall 0.00 in
Snow Depth Not available.
7:12 AM 7:04 PM
Waning Crescent, 2% visible
METAR LGPA 291320Z 35017KT CAVOK 24/10 Q1021

10-Day Weather Forecast

×

Almanac

Astronomy

Sep. 29, 2016 Rise Set
Actual Time
Civil Twilight
Nautical Twilight
Astronomical Twilight
Moon
Length of Visible Light
Length of Day
Tomorrow will be .
, % of the Moon is Illuminated

Today's Extremes

Country Highs Country Lows

Community

WunderPhotos

Upload Photos

1,942,470 photos uploaded!

WunderBlog® & News

Nearby

Air Quality

  Air Quality AQ Index Pollutant
Not available.

Snow Depth

Station Depth Elevation

Earthquake Activity

City Distance Mag. Time & Date
Minimum magnitude displayed is 2.5.

Coastal Water Temperatures

Place Temperature

Stations

Nearby Weather Stations

Station Location Temp. Windchill Dew Point Humidity Wind Precip. Elev Updated Type